sensor_id;sensor_type;location;lat;lon;timestamp;temperature;humidity
39503;DHT22;26970;49.900;10.774;2023-02-11T00:01:33;-2.10;99.90
39503;DHT22;26970;49.900;10.774;2023-02-11T00:04:00;-2.10;99.90
39503;DHT22;26970;49.900;10.774;2023-02-11T00:06:27;-2.10;99.90
39503;DHT22;26970;49.900;10.774;2023-02-11T00:08:53;-2.10;99.90
39503;DHT22;26970;49.900;10.774;2023-02-11T00:11:20;-2.10;99.90
39503;DHT22;26970;49.900;10.774;2023-02-11T00:13:46;-2.10;99.90
39503;DHT22;26970;49.900;10.774;2023-02-11T00:16:15;-2.10;99.90
39503;DHT22;26970;49.900;10.774;2023-02-11T00:18:42;-2.10;99.90
39503;DHT22;26970;49.900;10.774;2023-02-11T00:21:09;-2.10;99.90
39503;DHT22;26970;49.900;10.774;2023-02-11T00:23:35;-2.10;99.90
39503;DHT22;26970;49.900;10.774;2023-02-11T00:26:01;-2.00;99.90
39503;DHT22;26970;49.900;10.774;2023-02-11T00:28:27;-2.00;99.90
39503;DHT22;26970;49.900;10.774;2023-02-11T00:30:56;-1.90;99.90
39503;DHT22;26970;49.900;10.774;2023-02-11T00:33:22;-1.90;99.90
39503;DHT22;26970;49.900;10.774;2023-02-11T00:35:47;-1.80;99.90
39503;DHT22;26970;49.900;10.774;2023-02-11T00:38:13;-1.70;99.90
39503;DHT22;26970;49.900;10.774;2023-02-11T00:40:38;-1.60;99.90
39503;DHT22;26970;49.900;10.774;2023-02-11T00:43:04;-1.60;99.90
39503;DHT22;26970;49.900;10.774;2023-02-11T00:45:29;-1.50;99.90
39503;DHT22;26970;49.900;10.774;2023-02-11T00:47:56;-1.50;99.90
39503;DHT22;26970;49.900;10.774;2023-02-11T00:50:22;-1.50;99.90
39503;DHT22;26970;49.900;10.774;2023-02-11T00:52:48;-1.50;99.90
39503;DHT22;26970;49.900;10.774;2023-02-11T00:55:14;-1.60;99.90
39503;DHT22;26970;49.900;10.774;2023-02-11T00:57:40;-1.70;99.90
39503;DHT22;26970;49.900;10.774;2023-02-11T01:00:06;-1.70;99.90
39503;DHT22;26970;49.900;10.774;2023-02-11T01:02:32;-1.70;99.90
39503;DHT22;26970;49.900;10.774;2023-02-11T01:04:58;-1.70;99.90
39503;DHT22;26970;49.900;10.774;2023-02-11T01:07:24;-1.60;99.90
39503;DHT22;26970;49.900;10.774;2023-02-11T01:09:50;-1.60;99.90
39503;DHT22;26970;49.900;10.774;2023-02-11T01:12:16;-1.60;99.90
39503;DHT22;26970;49.900;10.774;2023-02-11T01:14:41;-1.60;99.90
39503;DHT22;26970;49.900;10.774;2023-02-11T01:17:07;-1.60;99.90
39503;DHT22;26970;49.900;10.774;2023-02-11T01:19:33;-1.60;99.90
39503;DHT22;26970;49.900;10.774;2023-02-11T01:21:58;-1.60;99.90
39503;DHT22;26970;49.900;10.774;2023-02-11T01:24:24;-1.60;99.90
39503;DHT22;26970;49.900;10.774;2023-02-11T01:26:49;-1.60;99.90
39503;DHT22;26970;49.900;10.774;2023-02-11T01:29:15;-1.60;99.90
39503;DHT22;26970;49.900;10.774;2023-02-11T01:31:40;-1.60;99.90
39503;DHT22;26970;49.900;10.774;2023-02-11T01:34:06;-1.50;99.90
39503;DHT22;26970;49.900;10.774;2023-02-11T01:36:32;-1.50;99.90
39503;DHT22;26970;49.900;10.774;2023-02-11T01:38:57;-1.50;99.90
39503;DHT22;26970;49.900;10.774;2023-02-11T01:41:23;-1.40;99.90
39503;DHT22;26970;49.900;10.774;2023-02-11T01:43:49;-1.30;99.90
39503;DHT22;26970;49.900;10.774;2023-02-11T01:48:51;-1.20;99.90
39503;DHT22;26970;49.900;10.774;2023-02-11T01:51:21;-1.20;99.90
39503;DHT22;26970;49.900;10.774;2023-02-11T01:53:49;-1.20;99.90
39503;DHT22;26970;49.900;10.774;2023-02-11T01:56:37;-1.20;99.90
39503;DHT22;26970;49.900;10.774;2023-02-11T01:59:37;-1.10;99.90
39503;DHT22;26970;49.900;10.774;2023-02-11T02:02:09;-0.90;99.90
39503;DHT22;26970;49.900;10.774;2023-02-11T02:04:41;-1.00;99.90
39503;DHT22;26970;49.900;10.774;2023-02-11T02:07:13;-1.00;99.90
39503;DHT22;26970;49.900;10.774;2023-02-11T02:09:45;-1.10;99.90
39503;DHT22;26970;49.900;10.774;2023-02-11T02:12:13;-1.00;99.90
39503;DHT22;26970;49.900;10.774;2023-02-11T02:14:40;-1.00;99.90
39503;DHT22;26970;49.900;10.774;2023-02-11T02:17:09;-1.00;99.90
39503;DHT22;26970;49.900;10.774;2023-02-11T02:22:46;-0.90;99.90
39503;DHT22;26970;49.900;10.774;2023-02-11T02:30:45;-0.90;99.90
39503;DHT22;26970;49.900;10.774;2023-02-11T02:39:07;-0.80;99.90
39503;DHT22;26970;49.900;10.774;2023-02-11T02:41:34;-0.80;99.90
39503;DHT22;26970;49.900;10.774;2023-02-11T02:44:01;-0.80;99.90
39503;DHT22;26970;49.900;10.774;2023-02-11T02:46:32;-0.80;99.90
39503;DHT22;26970;49.900;10.774;2023-02-11T02:48:58;-0.80;99.90
39503;DHT22;26970;49.900;10.774;2023-02-11T03:06:00;-1.00;99.90
39503;DHT22;26970;49.900;10.774;2023-02-11T03:11:02;-1.00;99.90
39503;DHT22;26970;49.900;10.774;2023-02-11T03:13:30;-0.90;99.90
39503;DHT22;26970;49.900;10.774;2023-02-11T03:16:01;-0.90;99.90
39503;DHT22;26970;49.900;10.774;2023-02-11T03:18:30;-0.80;99.90
39503;DHT22;26970;49.900;10.774;2023-02-11T03:20:57;-0.80;99.90
39503;DHT22;26970;49.900;10.774;2023-02-11T03:23:29;-0.80;99.90
39503;DHT22;26970;49.900;10.774;2023-02-11T03:26:02;-0.80;99.90
39503;DHT22;26970;49.900;10.774;2023-02-11T03:28:39;-0.80;99.90
39503;DHT22;26970;49.900;10.774;2023-02-11T03:31:24;-0.80;99.90
39503;DHT22;26970;49.900;10.774;2023-02-11T03:34:02;-0.70;99.90
39503;DHT22;26970;49.900;10.774;2023-02-11T03:36:35;-0.70;99.90
39503;DHT22;26970;49.900;10.774;2023-02-11T03:39:04;-0.60;99.90
39503;DHT22;26970;49.900;10.774;2023-02-11T03:41:30;-0.60;99.90
39503;DHT22;26970;49.900;10.774;2023-02-11T03:43:57;-0.60;99.90
39503;DHT22;26970;49.900;10.774;2023-02-11T03:46:29;-0.50;99.90
39503;DHT22;26970;49.900;10.774;2023-02-11T03:49:02;-0.50;99.90
39503;DHT22;26970;49.900;10.774;2023-02-11T03:51:28;-0.40;99.90
39503;DHT22;26970;49.900;10.774;2023-02-11T03:53:56;-0.40;99.90
39503;DHT22;26970;49.900;10.774;2023-02-11T03:56:26;-0.40;99.90
39503;DHT22;26970;49.900;10.774;2023-02-11T03:58:53;-0.30;99.90
39503;DHT22;26970;49.900;10.774;2023-02-11T04:01:19;-0.40;99.90
39503;DHT22;26970;49.900;10.774;2023-02-11T04:03:45;-0.30;99.90
39503;DHT22;26970;49.900;10.774;2023-02-11T04:06:10;-0.30;99.90
39503;DHT22;26970;49.900;10.774;2023-02-11T04:08:36;-0.30;99.90
39503;DHT22;26970;49.900;10.774;2023-02-11T04:11:01;-0.30;99.90
39503;DHT22;26970;49.900;10.774;2023-02-11T04:13:27;-0.30;99.90
39503;DHT22;26970;49.900;10.774;2023-02-11T04:15:53;-0.40;99.90
39503;DHT22;26970;49.900;10.774;2023-02-11T04:18:18;-0.40;99.90
39503;DHT22;26970;49.900;10.774;2023-02-11T04:20:44;-0.30;99.90
39503;DHT22;26970;49.900;10.774;2023-02-11T04:23:09;-0.40;99.90
39503;DHT22;26970;49.900;10.774;2023-02-11T04:25:35;-0.50;99.90
39503;DHT22;26970;49.900;10.774;2023-02-11T04:28:01;-0.50;99.90
39503;DHT22;26970;49.900;10.774;2023-02-11T04:30:26;-0.40;99.90
39503;DHT22;26970;49.900;10.774;2023-02-11T04:32:52;-0.40;99.90
39503;DHT22;26970;49.900;10.774;2023-02-11T04:35:19;-0.40;99.90
39503;DHT22;26970;49.900;10.774;2023-02-11T04:37:44;-0.30;99.90
39503;DHT22;26970;49.900;10.774;2023-02-11T04:40:11;-0.40;99.90
39503;DHT22;26970;49.900;10.774;2023-02-11T04:42:36;-0.30;99.90
39503;DHT22;26970;49.900;10.774;2023-02-11T04:45:02;-0.20;99.90
39503;DHT22;26970;49.900;10.774;2023-02-11T04:47:28;-0.20;99.90
39503;DHT22;26970;49.900;10.774;2023-02-11T04:49:53;-0.20;99.90
39503;DHT22;26970;49.900;10.774;2023-02-11T04:52:19;-0.20;99.90
39503;DHT22;26970;49.900;10.774;2023-02-11T04:54:44;-0.20;99.90
39503;DHT22;26970;49.900;10.774;2023-02-11T04:57:10;-0.20;99.90
39503;DHT22;26970;49.900;10.774;2023-02-11T04:59:36;-0.20;99.90
39503;DHT22;26970;49.900;10.774;2023-02-11T05:02:01;-0.20;99.90
39503;DHT22;26970;49.900;10.774;2023-02-11T05:04:28;-0.30;99.90
39503;DHT22;26970;49.900;10.774;2023-02-11T05:06:54;-0.30;99.90
39503;DHT22;26970;49.900;10.774;2023-02-11T05:09:19;-0.30;99.90
39503;DHT22;26970;49.900;10.774;2023-02-11T05:11:45;-0.20;99.90
39503;DHT22;26970;49.900;10.774;2023-02-11T05:14:10;-0.30;99.90
39503;DHT22;26970;49.900;10.774;2023-02-11T05:16:36;-0.30;99.90
39503;DHT22;26970;49.900;10.774;2023-02-11T05:19:02;-0.30;99.90
39503;DHT22;26970;49.900;10.774;2023-02-11T05:21:27;-0.30;99.90
39503;DHT22;26970;49.900;10.774;2023-02-11T05:23:53;-0.30;99.90
39503;DHT22;26970;49.900;10.774;2023-02-11T05:26:19;-0.20;99.90
39503;DHT22;26970;49.900;10.774;2023-02-11T05:28:44;-0.30;99.90
39503;DHT22;26970;49.900;10.774;2023-02-11T05:31:11;-0.30;99.90
39503;DHT22;26970;49.900;10.774;2023-02-11T05:33:38;-0.40;99.90
39503;DHT22;26970;49.900;10.774;2023-02-11T05:36:09;-0.40;99.90
39503;DHT22;26970;49.900;10.774;2023-02-11T05:38:35;-0.40;99.90
39503;DHT22;26970;49.900;10.774;2023-02-11T05:41:02;-0.40;99.90
39503;DHT22;26970;49.900;10.774;2023-02-11T05:43:28;-0.50;99.90
39503;DHT22;26970;49.900;10.774;2023-02-11T05:45:53;-0.40;99.90
39503;DHT22;26970;49.900;10.774;2023-02-11T05:48:19;-0.50;99.90
39503;DHT22;26970;49.900;10.774;2023-02-11T05:50:44;-0.40;99.90
39503;DHT22;26970;49.900;10.774;2023-02-11T05:53:10;-0.40;99.90
39503;DHT22;26970;49.900;10.774;2023-02-11T05:55:36;-0.40;99.90
39503;DHT22;26970;49.900;10.774;2023-02-11T05:58:02;-0.40;99.90
39503;DHT22;26970;49.900;10.774;2023-02-11T06:00:28;-0.50;99.90
39503;DHT22;26970;49.900;10.774;2023-02-11T06:02:54;-0.40;99.90
39503;DHT22;26970;49.900;10.774;2023-02-11T06:05:19;-0.40;99.90
39503;DHT22;26970;49.900;10.774;2023-02-11T06:07:45;-0.20;99.90
39503;DHT22;26970;49.900;10.774;2023-02-11T06:10:11;-0.10;99.90
39503;DHT22;26970;49.900;10.774;2023-02-11T06:12:37;-0.10;99.90
39503;DHT22;26970;49.900;10.774;2023-02-11T06:15:04;-0.10;99.90
39503;DHT22;26970;49.900;10.774;2023-02-11T06:17:30;-0.10;99.90
39503;DHT22;26970;49.900;10.774;2023-02-11T06:19:59;-0.10;99.90
39503;DHT22;26970;49.900;10.774;2023-02-11T06:22:25;-0.20;99.90
39503;DHT22;26970;49.900;10.774;2023-02-11T06:24:51;-0.30;99.90
39503;DHT22;26970;49.900;10.774;2023-02-11T06:27:17;-0.40;99.90
39503;DHT22;26970;49.900;10.774;2023-02-11T06:29:44;-0.40;99.90
39503;DHT22;26970;49.900;10.774;2023-02-11T06:32:09;-0.40;99.90
39503;DHT22;26970;49.900;10.774;2023-02-11T06:34:35;-0.50;99.90
39503;DHT22;26970;49.900;10.774;2023-02-11T06:37:01;-0.50;99.90
39503;DHT22;26970;49.900;10.774;2023-02-11T06:39:26;-0.50;99.90
39503;DHT22;26970;49.900;10.774;2023-02-11T06:41:52;-0.40;99.90
39503;DHT22;26970;49.900;10.774;2023-02-11T06:44:18;-0.40;99.90
39503;DHT22;26970;49.900;10.774;2023-02-11T06:46:43;-0.40;99.90
39503;DHT22;26970;49.900;10.774;2023-02-11T06:49:09;-0.40;99.90
39503;DHT22;26970;49.900;10.774;2023-02-11T06:51:34;-0.30;99.90
39503;DHT22;26970;49.900;10.774;2023-02-11T06:54:00;-0.30;99.90
39503;DHT22;26970;49.900;10.774;2023-02-11T06:56:26;-0.20;99.90
39503;DHT22;26970;49.900;10.774;2023-02-11T06:58:55;-0.20;99.90
39503;DHT22;26970;49.900;10.774;2023-02-11T07:01:22;-0.20;99.90
39503;DHT22;26970;49.900;10.774;2023-02-11T07:03:48;-0.20;99.90
39503;DHT22;26970;49.900;10.774;2023-02-11T07:06:20;0.00;99.90
39503;DHT22;26970;49.900;10.774;2023-02-11T07:08:46;-0.10;99.90
39503;DHT22;26970;49.900;10.774;2023-02-11T07:11:26;0.00;99.90
39503;DHT22;26970;49.900;10.774;2023-02-11T07:13:54;0.10;99.90
39503;DHT22;26970;49.900;10.774;2023-02-11T07:16:20;0.20;99.90
39503;DHT22;26970;49.900;10.774;2023-02-11T07:18:46;0.30;99.90
39503;DHT22;26970;49.900;10.774;2023-02-11T07:21:14;0.40;99.90
39503;DHT22;26970;49.900;10.774;2023-02-11T07:23:40;0.50;99.90
39503;DHT22;26970;49.900;10.774;2023-02-11T07:26:08;0.50;99.90
39503;DHT22;26970;49.900;10.774;2023-02-11T07:28:36;0.60;99.90
39503;DHT22;26970;49.900;10.774;2023-02-11T07:31:14;0.60;99.90
39503;DHT22;26970;49.900;10.774;2023-02-11T07:33:40;0.60;99.90
39503;DHT22;26970;49.900;10.774;2023-02-11T07:36:07;0.70;99.90
39503;DHT22;26970;49.900;10.774;2023-02-11T07:38:35;0.70;99.90
39503;DHT22;26970;49.900;10.774;2023-02-11T07:41:05;0.70;99.90
39503;DHT22;26970;49.900;10.774;2023-02-11T07:43:32;0.80;99.90
39503;DHT22;26970;49.900;10.774;2023-02-11T07:45:57;0.80;99.90
39503;DHT22;26970;49.900;10.774;2023-02-11T07:48:23;0.80;99.90
39503;DHT22;26970;49.900;10.774;2023-02-11T07:50:49;0.80;99.90
39503;DHT22;26970;49.900;10.774;2023-02-11T07:53:14;0.80;99.90
39503;DHT22;26970;49.900;10.774;2023-02-11T07:55:42;0.90;99.90
39503;DHT22;26970;49.900;10.774;2023-02-11T07:58:07;1.00;99.90
39503;DHT22;26970;49.900;10.774;2023-02-11T08:00:33;1.00;99.90
39503;DHT22;26970;49.900;10.774;2023-02-11T08:02:59;1.10;99.90
39503;DHT22;26970;49.900;10.774;2023-02-11T08:05:24;1.10;99.90
39503;DHT22;26970;49.900;10.774;2023-02-11T08:07:51;1.10;99.90
39503;DHT22;26970;49.900;10.774;2023-02-11T08:10:17;1.20;99.90
39503;DHT22;26970;49.900;10.774;2023-02-11T08:12:43;1.30;99.90
39503;DHT22;26970;49.900;10.774;2023-02-11T08:15:09;1.30;99.90
39503;DHT22;26970;49.900;10.774;2023-02-11T08:17:35;1.20;99.90
39503;DHT22;26970;49.900;10.774;2023-02-11T08:20:02;1.30;99.90
39503;DHT22;26970;49.900;10.774;2023-02-11T08:22:30;1.30;99.90
39503;DHT22;26970;49.900;10.774;2023-02-11T08:24:56;1.30;99.90
39503;DHT22;26970;49.900;10.774;2023-02-11T08:27:23;1.40;99.90
39503;DHT22;26970;49.900;10.774;2023-02-11T08:29:48;1.40;99.90
39503;DHT22;26970;49.900;10.774;2023-02-11T08:32:14;1.40;99.90
39503;DHT22;26970;49.900;10.774;2023-02-11T08:34:39;1.40;99.90
39503;DHT22;26970;49.900;10.774;2023-02-11T08:37:05;1.50;99.90
39503;DHT22;26970;49.900;10.774;2023-02-11T08:39:30;1.50;99.90
39503;DHT22;26970;49.900;10.774;2023-02-11T08:41:56;1.60;99.90
39503;DHT22;26970;49.900;10.774;2023-02-11T08:44:23;1.70;99.90
39503;DHT22;26970;49.900;10.774;2023-02-11T08:46:49;1.70;99.90
39503;DHT22;26970;49.900;10.774;2023-02-11T08:49:15;1.70;99.90
39503;DHT22;26970;49.900;10.774;2023-02-11T08:51:41;1.60;99.90
39503;DHT22;26970;49.900;10.774;2023-02-11T08:54:07;1.70;99.90
39503;DHT22;26970;49.900;10.774;2023-02-11T08:56:34;1.70;99.90
39503;DHT22;26970;49.900;10.774;2023-02-11T08:59:00;1.80;99.90
39503;DHT22;26970;49.900;10.774;2023-02-11T09:01:28;1.80;99.90
39503;DHT22;26970;49.900;10.774;2023-02-11T09:03:55;1.90;99.90
39503;DHT22;26970;49.900;10.774;2023-02-11T09:06:22;2.00;99.90
39503;DHT22;26970;49.900;10.774;2023-02-11T09:08:50;1.90;99.90
39503;DHT22;26970;49.900;10.774;2023-02-11T09:11:18;1.90;99.90
39503;DHT22;26970;49.900;10.774;2023-02-11T09:13:44;2.00;99.90
39503;DHT22;26970;49.900;10.774;2023-02-11T09:16:30;2.10;99.90
39503;DHT22;26970;49.900;10.774;2023-02-11T09:18:57;2.20;99.90
39503;DHT22;26970;49.900;10.774;2023-02-11T09:21:23;2.30;99.90
39503;DHT22;26970;49.900;10.774;2023-02-11T09:23:48;2.40;99.90
39503;DHT22;26970;49.900;10.774;2023-02-11T09:26:19;2.50;99.90
39503;DHT22;26970;49.900;10.774;2023-02-11T09:28:46;2.60;99.90
39503;DHT22;26970;49.900;10.774;2023-02-11T09:31:15;2.70;99.90
39503;DHT22;26970;49.900;10.774;2023-02-11T09:33:43;2.90;99.90
39503;DHT22;26970;49.900;10.774;2023-02-11T09:36:13;3.10;99.90
39503;DHT22;26970;49.900;10.774;2023-02-11T09:38:40;3.10;99.90
39503;DHT22;26970;49.900;10.774;2023-02-11T09:43:54;3.20;99.90
39503;DHT22;26970;49.900;10.774;2023-02-11T09:46:22;3.30;99.90
39503;DHT22;26970;49.900;10.774;2023-02-11T09:48:51;3.30;99.90
39503;DHT22;26970;49.900;10.774;2023-02-11T09:51:23;3.40;99.90
39503;DHT22;26970;49.900;10.774;2023-02-11T09:53:56;3.50;99.90
39503;DHT22;26970;49.900;10.774;2023-02-11T09:56:23;3.50;99.90
39503;DHT22;26970;49.900;10.774;2023-02-11T09:58:49;3.50;99.90
39503;DHT22;26970;49.900;10.774;2023-02-11T10:01:34;3.50;99.90
39503;DHT22;26970;49.900;10.774;2023-02-11T10:04:23;3.50;99.90
39503;DHT22;26970;49.900;10.774;2023-02-11T10:06:56;3.50;99.90
39503;DHT22;26970;49.900;10.774;2023-02-11T10:09:43;3.60;99.90
39503;DHT22;26970;49.900;10.774;2023-02-11T10:15:43;3.60;99.90
39503;DHT22;26970;49.900;10.774;2023-02-11T10:23:33;3.80;99.90
39503;DHT22;26970;49.900;10.774;2023-02-11T10:26:01;3.80;99.90
39503;DHT22;26970;49.900;10.774;2023-02-11T10:28:35;3.90;99.90
39503;DHT22;26970;49.900;10.774;2023-02-11T10:31:04;4.00;99.90
39503;DHT22;26970;49.900;10.774;2023-02-11T10:36:17;4.20;99.90
39503;DHT22;26970;49.900;10.774;2023-02-11T10:38:43;4.30;99.90
39503;DHT22;26970;49.900;10.774;2023-02-11T10:41:14;4.20;99.90
39503;DHT22;26970;49.900;10.774;2023-02-11T10:43:41;4.30;99.90
39503;DHT22;26970;49.900;10.774;2023-02-11T10:46:24;4.40;99.90
39503;DHT22;26970;49.900;10.774;2023-02-11T10:48:52;4.50;99.90
39503;DHT22;26970;49.900;10.774;2023-02-11T10:53:45;4.40;99.90
39503;DHT22;26970;49.900;10.774;2023-02-11T10:56:27;4.40;99.90
39503;DHT22;26970;49.900;10.774;2023-02-11T10:58:56;4.30;99.90
39503;DHT22;26970;49.900;10.774;2023-02-11T11:01:35;4.30;99.90
39503;DHT22;26970;49.900;10.774;2023-02-11T11:04:01;4.30;99.90
39503;DHT22;26970;49.900;10.774;2023-02-11T11:06:29;4.20;99.90
39503;DHT22;26970;49.900;10.774;2023-02-11T11:08:55;4.30;99.90
39503;DHT22;26970;49.900;10.774;2023-02-11T11:11:23;4.30;99.90
39503;DHT22;26970;49.900;10.774;2023-02-11T11:16:34;4.40;99.90
39503;DHT22;26970;49.900;10.774;2023-02-11T11:21:44;4.50;99.90
39503;DHT22;26970;49.900;10.774;2023-02-11T11:24:28;4.60;99.90
39503;DHT22;26970;49.900;10.774;2023-02-11T11:26:56;4.60;99.90
39503;DHT22;26970;49.900;10.774;2023-02-11T11:29:52;4.50;99.90
39503;DHT22;26970;49.900;10.774;2023-02-11T11:32:30;4.50;99.90
39503;DHT22;26970;49.900;10.774;2023-02-11T11:35:16;4.50;99.90
39503;DHT22;26970;49.900;10.774;2023-02-11T11:37:52;4.50;99.90
39503;DHT22;26970;49.900;10.774;2023-02-11T11:40:24;4.50;99.90
39503;DHT22;26970;49.900;10.774;2023-02-11T11:45:51;4.50;99.90
39503;DHT22;26970;49.900;10.774;2023-02-11T11:48:41;4.60;99.90
39503;DHT22;26970;49.900;10.774;2023-02-11T11:51:11;4.50;99.90
39503;DHT22;26970;49.900;10.774;2023-02-11T11:53:57;4.50;99.90
39503;DHT22;26970;49.900;10.774;2023-02-11T11:56:36;4.40;99.90
39503;DHT22;26970;49.900;10.774;2023-02-11T11:59:10;4.30;99.90
39503;DHT22;26970;49.900;10.774;2023-02-11T12:04:57;4.30;99.90
39503;DHT22;26970;49.900;10.774;2023-02-11T12:15:14;4.40;99.90
39503;DHT22;26970;49.900;10.774;2023-02-11T12:20:35;4.50;99.90
39503;DHT22;26970;49.900;10.774;2023-02-11T12:26:19;4.50;99.90
39503;DHT22;26970;49.900;10.774;2023-02-11T12:32:12;4.50;99.90
39503;DHT22;26970;49.900;10.774;2023-02-11T12:40:38;4.60;99.90
39503;DHT22;26970;49.900;10.774;2023-02-11T12:43:38;4.60;99.90
39503;DHT22;26970;49.900;10.774;2023-02-11T12:46:31;4.70;99.90
39503;DHT22;26970;49.900;10.774;2023-02-11T12:54:41;4.80;99.90
39503;DHT22;26970;49.900;10.774;2023-02-11T12:57:27;4.70;99.90
39503;DHT22;26970;49.900;10.774;2023-02-11T13:00:45;4.80;99.90
39503;DHT22;26970;49.900;10.774;2023-02-11T13:03:20;4.80;99.90
39503;DHT22;26970;49.900;10.774;2023-02-11T13:06:11;4.90;99.90
39503;DHT22;26970;49.900;10.774;2023-02-11T13:08:42;4.80;99.90
39503;DHT22;26970;49.900;10.774;2023-02-11T13:11:19;5.00;99.90
39503;DHT22;26970;49.900;10.774;2023-02-11T13:14:04;5.00;99.90
39503;DHT22;26970;49.900;10.774;2023-02-11T13:16:48;5.10;99.90
39503;DHT22;26970;49.900;10.774;2023-02-11T13:22:33;5.00;99.90
39503;DHT22;26970;49.900;10.774;2023-02-11T13:25:37;5.10;99.90
39503;DHT22;26970;49.900;10.774;2023-02-11T13:30:50;5.10;99.90
39503;DHT22;26970;49.900;10.774;2023-02-11T13:33:34;5.10;99.90
39503;DHT22;26970;49.900;10.774;2023-02-11T13:38:27;5.30;99.90
39503;DHT22;26970;49.900;10.774;2023-02-11T13:43:24;5.30;99.90
39503;DHT22;26970;49.900;10.774;2023-02-11T13:46:00;5.30;99.90
39503;DHT22;26970;49.900;10.774;2023-02-11T13:48:34;5.20;99.90
39503;DHT22;26970;49.900;10.774;2023-02-11T13:53:28;5.10;99.90
39503;DHT22;26970;49.900;10.774;2023-02-11T13:56:08;5.10;99.90
39503;DHT22;26970;49.900;10.774;2023-02-11T13:58:36;5.10;99.90
39503;DHT22;26970;49.900;10.774;2023-02-11T14:01:05;5.00;99.90
39503;DHT22;26970;49.900;10.774;2023-02-11T14:03:36;5.10;99.90
39503;DHT22;26970;49.900;10.774;2023-02-11T14:06:25;5.00;99.90
39503;DHT22;26970;49.900;10.774;2023-02-11T14:11:46;5.00;99.90
39503;DHT22;26970;49.900;10.774;2023-02-11T14:14:25;5.00;99.90
39503;DHT22;26970;49.900;10.774;2023-02-11T14:19:40;5.00;99.90
39503;DHT22;26970;49.900;10.774;2023-02-11T14:27:09;4.90;99.90
39503;DHT22;26970;49.900;10.774;2023-02-11T14:29:46;4.90;99.90
39503;DHT22;26970;49.900;10.774;2023-02-11T14:40:48;4.80;99.90
39503;DHT22;26970;49.900;10.774;2023-02-11T14:43:19;4.70;99.90
39503;DHT22;26970;49.900;10.774;2023-02-11T14:45:49;4.80;99.90
39503;DHT22;26970;49.900;10.774;2023-02-11T14:48:17;4.80;99.90
39503;DHT22;26970;49.900;10.774;2023-02-11T14:50:44;4.80;99.90
39503;DHT22;26970;49.900;10.774;2023-02-11T14:53:17;4.80;99.90
39503;DHT22;26970;49.900;10.774;2023-02-11T14:55:46;4.80;99.90
39503;DHT22;26970;49.900;10.774;2023-02-11T14:58:19;4.80;99.90
39503;DHT22;26970;49.900;10.774;2023-02-11T15:00:48;4.80;99.90
39503;DHT22;26970;49.900;10.774;2023-02-11T15:03:40;4.70;99.90
39503;DHT22;26970;49.900;10.774;2023-02-11T15:06:15;4.70;99.90
39503;DHT22;26970;49.900;10.774;2023-02-11T15:08:46;4.70;99.90
39503;DHT22;26970;49.900;10.774;2023-02-11T15:11:14;4.70;99.90
39503;DHT22;26970;49.900;10.774;2023-02-11T15:13:41;4.80;99.90
39503;DHT22;26970;49.900;10.774;2023-02-11T15:16:12;4.70;99.90
39503;DHT22;26970;49.900;10.774;2023-02-11T15:18:45;4.60;99.90
39503;DHT22;26970;49.900;10.774;2023-02-11T15:21:11;4.60;99.90
39503;DHT22;26970;49.900;10.774;2023-02-11T15:23:37;4.60;99.90
39503;DHT22;26970;49.900;10.774;2023-02-11T15:26:19;4.70;99.90
39503;DHT22;26970;49.900;10.774;2023-02-11T15:28:46;4.60;99.90
39503;DHT22;26970;49.900;10.774;2023-02-11T15:31:19;4.60;99.90
39503;DHT22;26970;49.900;10.774;2023-02-11T15:33:45;4.70;99.90
39503;DHT22;26970;49.900;10.774;2023-02-11T15:36:12;4.70;99.90
39503;DHT22;26970;49.900;10.774;2023-02-11T15:38:38;4.70;99.90
39503;DHT22;26970;49.900;10.774;2023-02-11T15:41:05;4.70;99.90
39503;DHT22;26970;49.900;10.774;2023-02-11T15:46:13;4.70;99.90
39503;DHT22;26970;49.900;10.774;2023-02-11T15:48:52;4.60;99.90
39503;DHT22;26970;49.900;10.774;2023-02-11T15:51:27;4.60;99.90
39503;DHT22;26970;49.900;10.774;2023-02-11T15:54:00;4.60;99.90
39503;DHT22;26970;49.900;10.774;2023-02-11T15:56:37;4.50;99.90
39503;DHT22;26970;49.900;10.774;2023-02-11T16:01:43;4.50;99.90
39503;DHT22;26970;49.900;10.774;2023-02-11T16:04:19;4.50;99.90
39503;DHT22;26970;49.900;10.774;2023-02-11T16:06:45;4.50;99.90
39503;DHT22;26970;49.900;10.774;2023-02-11T16:16:46;4.50;99.90
39503;DHT22;26970;49.900;10.774;2023-02-11T16:19:18;4.40;99.90
39503;DHT22;26970;49.900;10.774;2023-02-11T16:21:44;4.40;99.90
39503;DHT22;26970;49.900;10.774;2023-02-11T16:24:39;4.40;99.90
39503;DHT22;26970;49.900;10.774;2023-02-11T16:27:17;4.40;99.90
39503;DHT22;26970;49.900;10.774;2023-02-11T16:29:46;4.40;99.90
39503;DHT22;26970;49.900;10.774;2023-02-11T16:32:20;4.40;99.90
39503;DHT22;26970;49.900;10.774;2023-02-11T16:34:47;4.30;99.90
39503;DHT22;26970;49.900;10.774;2023-02-11T16:37:13;4.40;99.90
39503;DHT22;26970;49.900;10.774;2023-02-11T16:39:38;4.30;99.90
39503;DHT22;26970;49.900;10.774;2023-02-11T16:42:04;4.30;99.90
39503;DHT22;26970;49.900;10.774;2023-02-11T16:44:32;4.40;99.90
39503;DHT22;26970;49.900;10.774;2023-02-11T16:46:58;4.30;99.90
39503;DHT22;26970;49.900;10.774;2023-02-11T16:49:36;4.30;99.90
39503;DHT22;26970;49.900;10.774;2023-02-11T16:52:07;4.30;99.90
39503;DHT22;26970;49.900;10.774;2023-02-11T16:54:33;4.30;99.90
39503;DHT22;26970;49.900;10.774;2023-02-11T16:56:58;4.20;99.90
39503;DHT22;26970;49.900;10.774;2023-02-11T16:59:24;4.30;99.90
39503;DHT22;26970;49.900;10.774;2023-02-11T17:01:51;4.20;99.90
39503;DHT22;26970;49.900;10.774;2023-02-11T17:04:20;4.20;99.90
39503;DHT22;26970;49.900;10.774;2023-02-11T17:06:46;4.20;99.90
39503;DHT22;26970;49.900;10.774;2023-02-11T17:09:20;4.30;99.90
39503;DHT22;26970;49.900;10.774;2023-02-11T17:11:46;4.30;99.90
39503;DHT22;26970;49.900;10.774;2023-02-11T17:14:12;4.20;99.90
39503;DHT22;26970;49.900;10.774;2023-02-11T17:16:38;4.30;99.90
39503;DHT22;26970;49.900;10.774;2023-02-11T17:19:04;4.20;99.90
39503;DHT22;26970;49.900;10.774;2023-02-11T17:21:30;4.20;99.90
39503;DHT22;26970;49.900;10.774;2023-02-11T17:23:57;4.20;99.90
39503;DHT22;26970;49.900;10.774;2023-02-11T17:26:23;4.20;99.90
39503;DHT22;26970;49.900;10.774;2023-02-11T17:28:48;4.20;99.90
39503;DHT22;26970;49.900;10.774;2023-02-11T17:31:14;4.10;99.90
39503;DHT22;26970;49.900;10.774;2023-02-11T17:33:40;4.10;99.90
39503;DHT22;26970;49.900;10.774;2023-02-11T17:36:07;4.10;99.90
39503;DHT22;26970;49.900;10.774;2023-02-11T17:38:34;4.10;99.90
39503;DHT22;26970;49.900;10.774;2023-02-11T17:41:00;4.10;99.90
39503;DHT22;26970;49.900;10.774;2023-02-11T17:43:27;4.10;99.90
39503;DHT22;26970;49.900;10.774;2023-02-11T17:45:52;4.10;99.90
39503;DHT22;26970;49.900;10.774;2023-02-11T17:48:18;4.10;99.90
39503;DHT22;26970;49.900;10.774;2023-02-11T17:50:44;4.10;99.90
39503;DHT22;26970;49.900;10.774;2023-02-11T17:53:09;4.10;99.90
39503;DHT22;26970;49.900;10.774;2023-02-11T17:55:35;4.10;99.90